createdAt,value
2022-10-03T00:00:10.077Z,208.37768
2022-10-03T00:05:11.726Z,190.4
2022-10-03T00:10:13.342Z,214.17544
2022-10-03T00:15:14.924Z,206.12766
2022-10-03T00:20:16.537Z,196.45902
2022-10-03T00:25:18.152Z,203.91561
2022-10-03T00:30:19.827Z,193.39271
2022-10-03T00:35:21.436Z,194.4065
2022-10-03T00:40:23.083Z,195.42857
2022-10-03T00:45:24.679Z,207.24786
2022-10-03T00:50:26.272Z,201.74059
2022-10-03T00:55:27.898Z,193.39271
2022-10-03T01:00:29.476Z,199.60166
2022-10-03T01:05:31.058Z,192.3871
2022-10-03T01:10:32.655Z,188.44444
2022-10-03T01:15:34.430Z,187.47826
2022-10-03T01:20:36.004Z,186.51969
2022-10-03T01:25:37.618Z,185.56863
2022-10-03T01:30:39.230Z,193.39271
2022-10-03T01:35:40.847Z,188.44444
2022-10-03T01:40:42.485Z,194.4065
2022-10-03T01:45:44.106Z,197.49794
2022-10-03T01:50:45.695Z,193.39271
2022-10-03T01:55:47.297Z,187.47826
2022-10-03T02:00:48.997Z,191.38956
2022-10-03T02:05:50.671Z,202.82353
2022-10-03T02:10:52.267Z,198.54545
2022-10-03T02:15:53.933Z,187.47826
2022-10-03T02:20:55.557Z,182.75969
2022-10-03T02:25:57.151Z,182.75969
2022-10-03T02:30:58.729Z,182.75969
2022-10-03T02:36:00.307Z,185.56863
2022-10-03T02:41:01.867Z,183.68872
2022-10-03T02:46:03.515Z,185.56863
2022-10-03T02:51:05.212Z,186.51969
2022-10-03T02:56:06.804Z,189.41833
2022-10-03T03:01:08.430Z,189.41833
2022-10-03T03:06:10.088Z,185.56863
2022-10-03T03:11:11.710Z,185.56863
2022-10-03T03:16:13.350Z,182.75969
2022-10-03T03:21:15.049Z,180.01533
2022-10-03T03:26:16.657Z,181.83784
2022-10-03T03:31:18.344Z,182.75969
2022-10-03T03:36:19.966Z,181.83784
2022-10-03T03:41:21.617Z,184.625
2022-10-03T03:46:23.230Z,192.3871
2022-10-03T03:51:24.818Z,199.60166
2022-10-03T03:56:26.460Z,202.82353
2022-10-03T04:01:28.113Z,192.3871
2022-10-03T04:06:29.797Z,186.51969
2022-10-03T04:11:31.395Z,182.75969
2022-10-03T04:16:33.085Z,190.4
2022-10-03T04:21:34.735Z,196.45902
2022-10-03T04:26:36.339Z,186.51969
2022-10-03T04:31:38.331Z,184.625
2022-10-03T04:36:40.253Z,181.83784
2022-10-03T04:41:43.204Z,181.83784
2022-10-03T04:46:45.074Z,183.68872
2022-10-03T04:51:46.700Z,186.51969
2022-10-03T04:56:48.353Z,187.47826
2022-10-03T05:01:50.096Z,188.44444
2022-10-03T05:06:51.869Z,188.44444
2022-10-03T05:11:53.607Z,197.49794
2022-10-03T05:16:55.269Z,207.24786
2022-10-03T05:21:57.030Z,199.60166
2022-10-03T05:26:58.709Z,208.37768
2022-10-03T05:32:00.409Z,205.01695
2022-10-03T05:37:02.075Z,206.12766
2022-10-03T05:42:21.611Z,205.01695
2022-10-03T05:47:24.235Z,206.12766
2022-10-03T05:52:25.890Z,203.91561
2022-10-03T05:57:27.489Z,207.24786
2022-10-03T06:02:29.227Z,196.45902
2022-10-03T06:07:30.958Z,186.51969
2022-10-03T06:12:32.665Z,194.4065
2022-10-03T06:17:34.333Z,194.4065
2022-10-03T06:22:35.921Z,195.42857
2022-10-03T06:27:37.707Z,198.54545
2022-10-03T06:32:39.394Z,197.49794
2022-10-03T06:37:40.979Z,197.49794
2022-10-03T06:42:42.604Z,196.45902
2022-10-03T06:47:44.201Z,197.49794
2022-10-03T06:52:45.807Z,197.49794
2022-10-03T06:57:47.475Z,203.91561
2022-10-03T07:02:49.242Z,208.37768
2022-10-03T07:07:51.032Z,207.24786
2022-10-03T07:12:52.710Z,205.01695
2022-10-03T07:17:54.325Z,207.24786
2022-10-03T07:22:55.976Z,202.82353
2022-10-03T07:27:57.619Z,205.01695
2022-10-03T07:32:59.309Z,212.99563
2022-10-03T07:38:00.946Z,212.99563
2022-10-03T07:43:02.639Z,205.01695
2022-10-03T07:48:04.230Z,203.91561
2022-10-03T07:53:05.866Z,212.99563
2022-10-03T07:58:07.483Z,203.91561
2022-10-03T08:03:09.193Z,209.51724
2022-10-03T08:08:10.946Z,209.51724
2022-10-03T08:13:12.618Z,208.37768
2022-10-03T08:18:14.245Z,212.99563
2022-10-03T08:23:15.871Z,205.01695
2022-10-03T08:28:17.550Z,203.91561
2022-10-03T08:33:19.302Z,206.12766
2022-10-03T08:38:23.842Z,207.24786
2022-10-03T08:43:27.873Z,205.01695
2022-10-03T08:48:29.530Z,208.37768
2022-10-03T08:53:31.149Z,206.12766
2022-10-03T08:58:32.760Z,208.37768
2022-10-03T09:03:38.098Z,206.12766
2022-10-03T09:08:43.664Z,205.01695
2022-10-03T09:13:45.276Z,203.91561
2022-10-03T09:18:46.890Z,210.66667
2022-10-03T09:23:48.470Z,206.12766
2022-10-03T09:28:50.065Z,205.01695
2022-10-03T09:33:51.784Z,206.12766
2022-10-03T09:38:53.386Z,208.37768
2022-10-03T09:43:55.008Z,212.99563
2022-10-03T09:48:56.662Z,212.99563
2022-10-03T09:53:58.297Z,206.12766
2022-10-03T09:58:59.916Z,208.37768
2022-10-03T10:04:01.558Z,210.66667
2022-10-03T10:09:03.210Z,209.51724
2022-10-03T10:14:08.421Z,208.37768
2022-10-03T10:19:10.567Z,207.24786
2022-10-03T10:24:12.205Z,205.01695
2022-10-03T10:29:13.794Z,205.01695
2022-10-03T10:34:15.411Z,206.12766
2022-10-03T10:39:17.026Z,202.82353
2022-10-03T10:44:18.652Z,209.51724
2022-10-03T10:49:20.382Z,212.99563
2022-10-03T10:54:21.997Z,215.36564
2022-10-03T10:59:23.605Z,216.56637
2022-10-03T11:04:25.185Z,211.82609
2022-10-03T11:09:26.840Z,208.37768
2022-10-03T11:14:28.462Z,209.51724
2022-10-03T11:19:30.023Z,210.66667
2022-10-03T11:24:31.611Z,206.12766
2022-10-03T11:29:33.214Z,210.66667
2022-10-03T11:34:34.813Z,212.99563
2022-10-03T11:39:36.422Z,212.99563
2022-10-03T11:44:38.073Z,210.66667
2022-10-03T11:49:39.696Z,209.51724
2022-10-03T11:54:41.335Z,210.66667
2022-10-03T11:59:43.049Z,209.51724
2022-10-03T12:04:44.733Z,211.82609
2022-10-03T12:09:46.395Z,209.51724
2022-10-03T12:14:48.043Z,208.37768
2022-10-03T12:19:49.713Z,212.99563
2022-10-03T12:24:51.325Z,214.17544
2022-10-03T12:29:53.087Z,197.49794
2022-10-03T12:34:54.729Z,203.91561
2022-10-03T12:39:56.324Z,205.01695
2022-10-03T12:44:57.934Z,210.66667
2022-10-03T12:49:59.532Z,209.51724
2022-10-03T12:55:01.230Z,206.12766
2022-10-03T13:00:02.890Z,208.37768
2022-10-03T13:05:04.474Z,209.51724
2022-10-03T13:10:06.056Z,211.82609
2022-10-03T13:15:07.666Z,212.99563
2022-10-03T13:20:09.388Z,212.99563
2022-10-03T13:25:11.070Z,209.51724
2022-10-03T13:30:12.658Z,211.82609
2022-10-03T13:35:14.274Z,211.82609
2022-10-03T13:40:15.853Z,203.91561
2022-10-03T13:45:17.431Z,201.74059
2022-10-03T13:50:19.032Z,203.91561
2022-10-03T13:55:20.657Z,200.66667
2022-10-03T14:00:22.239Z,202.82353
2022-10-03T14:05:23.764Z,202.82353
2022-10-03T14:10:25.368Z,202.82353
2022-10-03T14:15:27.133Z,202.82353
2022-10-03T14:20:28.785Z,202.82353
2022-10-03T14:25:30.381Z,202.82353
2022-10-03T14:30:31.985Z,205.01695
2022-10-03T14:35:33.590Z,198.54545
2022-10-03T14:40:35.208Z,199.60166
2022-10-03T14:45:37.014Z,199.60166
2022-10-03T14:50:38.638Z,200.66667
2022-10-03T14:55:40.382Z,200.66667
2022-10-03T15:00:42.010Z,199.60166
2022-10-03T15:05:43.622Z,197.49794
2022-10-03T15:10:45.244Z,195.42857
2022-10-03T15:15:46.923Z,192.3871
2022-10-03T15:20:48.578Z,193.39271
2022-10-03T15:25:50.218Z,194.4065
2022-10-03T15:30:51.858Z,193.39271
2022-10-03T15:35:53.454Z,195.42857
2022-10-03T15:40:55.064Z,199.60166
2022-10-03T15:45:56.838Z,198.54545
2022-10-03T15:50:58.486Z,199.60166
2022-10-03T15:56:00.094Z,194.4065
2022-10-03T16:01:01.710Z,192.3871
2022-10-03T16:06:03.407Z,194.4065
2022-10-03T16:11:05.017Z,199.60166
2022-10-03T16:16:06.708Z,199.60166
2022-10-03T16:21:08.410Z,202.82353
2022-10-03T16:26:10.013Z,202.82353
2022-10-03T16:31:11.719Z,198.54545
2022-10-03T16:36:13.351Z,201.74059
2022-10-03T16:41:15.007Z,202.82353
2022-10-03T16:46:16.710Z,211.82609
2022-10-03T16:51:18.373Z,216.56637
2022-10-03T16:56:19.985Z,211.82609
2022-10-03T17:01:27.394Z,220.23318
2022-10-03T17:06:29.628Z,211.82609
2022-10-03T17:11:31.243Z,215.36564
2022-10-03T17:16:32.980Z,220.23318
2022-10-03T17:21:34.630Z,230.51163
2022-10-03T17:26:36.411Z,220.23318
2022-10-03T17:31:38.595Z,233.20188
2022-10-03T17:36:40.709Z,225.27854
2022-10-03T17:41:42.993Z,220.23318
2022-10-03T17:46:44.959Z,221.47748
2022-10-03T17:51:46.560Z,224
2022-10-03T17:56:48.183Z,225.27854
2022-10-03T18:01:49.801Z,222.73303
2022-10-03T18:06:51.440Z,227.87097
2022-10-03T18:11:53.018Z,227.87097
2022-10-03T18:16:54.623Z,234.56604
2022-10-03T18:21:56.244Z,248.9505
2022-10-03T18:26:57.844Z,237.33333
2022-10-03T18:31:59.506Z,240.15385
2022-10-03T18:37:01.186Z,238.73684
2022-10-03T18:42:02.760Z,248.9505
2022-10-03T18:47:04.376Z,240.15385
2022-10-03T18:52:05.970Z,237.33333
2022-10-03T18:57:07.551Z,234.56604
2022-10-03T19:02:09.223Z,240.15385
2022-10-03T19:07:10.996Z,238.73684
2022-10-03T19:12:12.626Z,241.58454
2022-10-03T19:17:14.274Z,244.4878
2022-10-03T19:22:15.907Z,247.44828
2022-10-03T19:27:17.598Z,243.02913
2022-10-03T19:32:19.265Z,244.4878
2022-10-03T19:37:20.865Z,240.15385
2022-10-03T19:42:22.483Z,243.02913
2022-10-03T19:47:24.079Z,258.28571
2022-10-03T19:52:25.707Z,240.15385
2022-10-03T19:57:27.297Z,238.73684
2022-10-03T20:02:28.952Z,238.73684
2022-10-03T20:07:30.618Z,250.46766
2022-10-03T20:12:32.212Z,238.73684
2022-10-03T20:17:33.826Z,241.58454
2022-10-03T20:22:35.443Z,253.54774
2022-10-03T20:27:37.061Z,256.69036
2022-10-03T20:32:38.640Z,276.97297
2022-10-03T20:37:40.282Z,266.51309
2022-10-03T20:42:41.879Z,259.89744
2022-10-03T20:47:43.517Z,253.54774
2022-10-03T20:52:45.152Z,252
2022-10-03T20:57:46.752Z,271.65957
2022-10-03T21:02:48.451Z,268.21053
2022-10-03T21:07:50.093Z,269.92593
2022-10-03T21:12:51.709Z,273.41176
2022-10-03T21:17:53.325Z,278.78261
2022-10-03T21:22:54.954Z,250.46766
2022-10-03T21:27:56.596Z,248.9505
2022-10-03T21:32:58.257Z,241.58454
2022-10-03T21:37:59.882Z,256.69036
2022-10-03T21:43:02.597Z,255.11111
2022-10-03T21:48:04.203Z,253.54774
2022-10-03T21:53:05.833Z,253.54774
2022-10-03T21:58:07.422Z,243.02913
2022-10-03T22:03:09.028Z,229.18519
2022-10-03T22:08:10.630Z,230.51163
2022-10-03T22:13:12.223Z,229.18519
2022-10-03T22:18:13.965Z,217.77778
2022-10-03T22:23:15.604Z,192.3871
2022-10-03T22:28:17.245Z,189.41833
2022-10-03T22:33:18.904Z,181.83784
2022-10-03T22:38:20.516Z,176.45283
2022-10-03T22:43:22.152Z,183.68872
2022-10-03T22:48:23.769Z,186.51969
2022-10-03T22:53:25.360Z,181.83784
2022-10-03T22:58:26.983Z,182.75969
2022-10-03T23:03:28.633Z,187.47826
2022-10-03T23:08:30.255Z,184.625
2022-10-03T23:13:31.836Z,171.30627
2022-10-03T23:18:33.445Z,173.85075
2022-10-03T23:23:35.011Z,125.71091
2022-10-03T23:28:36.606Z,160.14035
2022-10-03T23:33:38.194Z,184.625
2022-10-03T23:38:39.824Z,176.45283
2022-10-03T23:43:41.417Z,172.99628
2022-10-03T23:48:43.007Z,174.71161
2022-10-03T23:53:44.625Z,172.14815
2022-10-03T23:58:46.268Z,160.90141
